sensor_id;sensor_type;location;lat;lon;timestamp;temperature;humidity
66119;DHT22;52912;48.564;9.302;2024-02-16T00:01:56;9.51;90.49
66119;DHT22;52912;48.564;9.302;2024-02-16T00:04:21;9.51;90.33
66119;DHT22;52912;48.564;9.302;2024-02-16T00:06:47;9.51;90.59
66119;DHT22;52912;48.564;9.302;2024-02-16T00:09:12;9.57;90.56
66119;DHT22;52912;48.564;9.302;2024-02-16T00:11:39;9.57;90.58
66119;DHT22;52912;48.564;9.302;2024-02-16T00:14:05;9.60;90.81
66119;DHT22;52912;48.564;9.302;2024-02-16T00:16:30;9.58;90.92
66119;DHT22;52912;48.564;9.302;2024-02-16T00:18:56;9.53;90.80
66119;DHT22;52912;48.564;9.302;2024-02-16T00:21:21;9.64;91.38
66119;DHT22;52912;48.564;9.302;2024-02-16T00:23:47;9.67;91.31
66119;DHT22;52912;48.564;9.302;2024-02-16T00:26:12;9.64;91.63
66119;DHT22;52912;48.564;9.302;2024-02-16T00:28:39;9.61;91.96
66119;DHT22;52912;48.564;9.302;2024-02-16T00:31:05;9.64;91.59
66119;DHT22;52912;48.564;9.302;2024-02-16T00:33:30;9.65;91.24
66119;DHT22;52912;48.564;9.302;2024-02-16T00:35:56;9.61;91.59
66119;DHT22;52912;48.564;9.302;2024-02-16T00:38:22;9.61;92.02
66119;DHT22;52912;48.564;9.302;2024-02-16T00:40:47;9.65;91.96
66119;DHT22;52912;48.564;9.302;2024-02-16T00:43:13;9.63;91.86
66119;DHT22;52912;48.564;9.302;2024-02-16T00:45:39;9.67;91.97
66119;DHT22;52912;48.564;9.302;2024-02-16T00:48:05;9.81;91.86
66119;DHT22;52912;48.564;9.302;2024-02-16T00:50:31;9.84;91.76
66119;DHT22;52912;48.564;9.302;2024-02-16T00:52:56;9.85;91.71
66119;DHT22;52912;48.564;9.302;2024-02-16T00:55:22;9.87;91.67
66119;DHT22;52912;48.564;9.302;2024-02-16T00:57:47;9.87;91.93
66119;DHT22;52912;48.564;9.302;2024-02-16T01:00:13;9.88;91.97
66119;DHT22;52912;48.564;9.302;2024-02-16T01:02:40;9.87;91.76
66119;DHT22;52912;48.564;9.302;2024-02-16T01:05:07;9.87;91.67
66119;DHT22;52912;48.564;9.302;2024-02-16T01:07:32;9.82;91.87
66119;DHT22;52912;48.564;9.302;2024-02-16T01:09:58;9.84;91.97
66119;DHT22;52912;48.564;9.302;2024-02-16T01:12:23;9.81;91.88
66119;DHT22;52912;48.564;9.302;2024-02-16T01:14:49;9.78;92.26
66119;DHT22;52912;48.564;9.302;2024-02-16T01:17:14;9.73;92.57
66119;DHT22;52912;48.564;9.302;2024-02-16T01:19:41;9.75;91.99
66119;DHT22;52912;48.564;9.302;2024-02-16T01:22:06;9.80;91.63
66119;DHT22;52912;48.564;9.302;2024-02-16T01:24:32;9.78;91.81
66119;DHT22;52912;48.564;9.302;2024-02-16T01:26:57;9.85;91.25
66119;DHT22;52912;48.564;9.302;2024-02-16T01:29:23;9.92;91.52
66119;DHT22;52912;48.564;9.302;2024-02-16T01:31:49;9.81;91.98
66119;DHT22;52912;48.564;9.302;2024-02-16T01:34:14;9.74;91.99
66119;DHT22;52912;48.564;9.302;2024-02-16T01:36:41;9.70;92.08
66119;DHT22;52912;48.564;9.302;2024-02-16T01:39:07;9.71;92.58
66119;DHT22;52912;48.564;9.302;2024-02-16T01:41:32;9.67;92.54
66119;DHT22;52912;48.564;9.302;2024-02-16T01:43:58;9.58;92.61
66119;DHT22;52912;48.564;9.302;2024-02-16T01:46:23;9.55;92.43
66119;DHT22;52912;48.564;9.302;2024-02-16T01:48:49;9.53;92.84
66119;DHT22;52912;48.564;9.302;2024-02-16T01:51:15;9.46;92.61
66119;DHT22;52912;48.564;9.302;2024-02-16T01:53:42;9.47;92.97
66119;DHT22;52912;48.564;9.302;2024-02-16T01:56:08;9.42;93.32
66119;DHT22;52912;48.564;9.302;2024-02-16T01:58:33;9.29;93.70
66119;DHT22;52912;48.564;9.302;2024-02-16T02:00:59;9.42;93.50
66119;DHT22;52912;48.564;9.302;2024-02-16T02:03:24;9.50;93.00
66119;DHT22;52912;48.564;9.302;2024-02-16T02:05:50;9.50;93.07
66119;DHT22;52912;48.564;9.302;2024-02-16T02:08:15;9.42;93.38
66119;DHT22;52912;48.564;9.302;2024-02-16T02:10:42;9.36;93.51
66119;DHT22;52912;48.564;9.302;2024-02-16T02:13:08;9.36;93.37
66119;DHT22;52912;48.564;9.302;2024-02-16T02:15:34;9.35;93.24
66119;DHT22;52912;48.564;9.302;2024-02-16T02:17:59;9.39;93.05
66119;DHT22;52912;48.564;9.302;2024-02-16T02:20:25;9.32;93.24
66119;DHT22;52912;48.564;9.302;2024-02-16T02:22:51;9.36;93.35
66119;DHT22;52912;48.564;9.302;2024-02-16T02:25:17;9.36;93.19
66119;DHT22;52912;48.564;9.302;2024-02-16T02:27:42;9.36;92.90
66119;DHT22;52912;48.564;9.302;2024-02-16T02:30:09;9.39;93.07
66119;DHT22;52912;48.564;9.302;2024-02-16T02:32:34;9.33;93.35
66119;DHT22;52912;48.564;9.302;2024-02-16T02:35:00;9.27;93.49
66119;DHT22;52912;48.564;9.302;2024-02-16T02:37:26;9.27;93.41
66119;DHT22;52912;48.564;9.302;2024-02-16T02:39:53;9.25;93.55
66119;DHT22;52912;48.564;9.302;2024-02-16T02:42:18;9.29;93.16
66119;DHT22;52912;48.564;9.302;2024-02-16T02:44:44;9.29;92.85
66119;DHT22;52912;48.564;9.302;2024-02-16T02:47:09;9.23;93.09
66119;DHT22;52912;48.564;9.302;2024-02-16T02:49:35;9.23;92.98
66119;DHT22;52912;48.564;9.302;2024-02-16T02:52:01;9.20;92.93
66119;DHT22;52912;48.564;9.302;2024-02-16T02:54:26;9.22;92.69
66119;DHT22;52912;48.564;9.302;2024-02-16T02:56:53;9.20;92.65
66119;DHT22;52912;48.564;9.302;2024-02-16T02:59:18;9.22;92.75
66119;DHT22;52912;48.564;9.302;2024-02-16T03:01:44;9.22;92.48
66119;DHT22;52912;48.564;9.302;2024-02-16T03:04:10;9.25;92.72
66119;DHT22;52912;48.564;9.302;2024-02-16T03:06:35;9.22;92.40
66119;DHT22;52912;48.564;9.302;2024-02-16T03:09:01;9.20;92.36
66119;DHT22;52912;48.564;9.302;2024-02-16T03:11:26;9.18;92.70
66119;DHT22;52912;48.564;9.302;2024-02-16T03:13:53;9.16;92.70
66119;DHT22;52912;48.564;9.302;2024-02-16T03:16:19;9.15;92.84
66119;DHT22;52912;48.564;9.302;2024-02-16T03:18:44;9.11;92.85
66119;DHT22;52912;48.564;9.302;2024-02-16T03:21:13;9.15;92.66
66119;DHT22;52912;48.564;9.302;2024-02-16T03:23:38;9.12;92.68
66119;DHT22;52912;48.564;9.302;2024-02-16T03:26:04;9.14;93.27
66119;DHT22;52912;48.564;9.302;2024-02-16T03:28:29;9.16;92.39
66119;DHT22;52912;48.564;9.302;2024-02-16T03:30:56;9.18;92.17
66119;DHT22;52912;48.564;9.302;2024-02-16T03:33:22;9.22;91.69
66119;DHT22;52912;48.564;9.302;2024-02-16T03:35:47;9.23;92.21
66119;DHT22;52912;48.564;9.302;2024-02-16T03:38:13;9.26;92.25
66119;DHT22;52912;48.564;9.302;2024-02-16T03:40:38;9.27;92.75
66119;DHT22;52912;48.564;9.302;2024-02-16T03:43:04;9.22;92.41
66119;DHT22;52912;48.564;9.302;2024-02-16T03:45:29;9.22;92.58
66119;DHT22;52912;48.564;9.302;2024-02-16T03:47:56;9.22;93.18
66119;DHT22;52912;48.564;9.302;2024-02-16T03:50:22;9.18;93.16
66119;DHT22;52912;48.564;9.302;2024-02-16T03:52:47;9.23;92.90
66119;DHT22;52912;48.564;9.302;2024-02-16T03:55:13;9.18;93.20
66119;DHT22;52912;48.564;9.302;2024-02-16T03:57:39;9.07;93.81
66119;DHT22;52912;48.564;9.302;2024-02-16T04:00:06;9.11;93.41
66119;DHT22;52912;48.564;9.302;2024-02-16T04:02:32;9.12;93.50
66119;DHT22;52912;48.564;9.302;2024-02-16T04:04:59;9.08;93.67
66119;DHT22;52912;48.564;9.302;2024-02-16T04:07:24;9.05;93.78
66119;DHT22;52912;48.564;9.302;2024-02-16T04:09:50;8.95;93.64
66119;DHT22;52912;48.564;9.302;2024-02-16T04:12:15;8.95;93.35
66119;DHT22;52912;48.564;9.302;2024-02-16T04:14:41;8.84;93.80
66119;DHT22;52912;48.564;9.302;2024-02-16T04:17:06;8.84;93.70
66119;DHT22;52912;48.564;9.302;2024-02-16T04:19:32;8.92;93.35
66119;DHT22;52912;48.564;9.302;2024-02-16T04:21:59;8.87;93.54
66119;DHT22;52912;48.564;9.302;2024-02-16T04:24:24;8.88;93.48
66119;DHT22;52912;48.564;9.302;2024-02-16T04:26:50;8.85;93.52
66119;DHT22;52912;48.564;9.302;2024-02-16T04:29:15;8.87;93.81
66119;DHT22;52912;48.564;9.302;2024-02-16T04:31:41;8.77;94.29
66119;DHT22;52912;48.564;9.302;2024-02-16T04:34:07;8.75;94.16
66119;DHT22;52912;48.564;9.302;2024-02-16T04:36:33;8.74;94.10
66119;DHT22;52912;48.564;9.302;2024-02-16T04:39:00;8.73;94.32
66119;DHT22;52912;48.564;9.302;2024-02-16T04:41:25;8.68;94.28
66119;DHT22;52912;48.564;9.302;2024-02-16T04:43:51;8.68;94.29
66119;DHT22;52912;48.564;9.302;2024-02-16T04:46:17;8.68;94.42
66119;DHT22;52912;48.564;9.302;2024-02-16T04:48:42;8.68;94.59
66119;DHT22;52912;48.564;9.302;2024-02-16T04:51:08;8.60;94.62
66119;DHT22;52912;48.564;9.302;2024-02-16T04:53:34;8.63;94.40
66119;DHT22;52912;48.564;9.302;2024-02-16T04:56:01;8.67;94.29
66119;DHT22;52912;48.564;9.302;2024-02-16T04:58:26;8.68;94.27
66119;DHT22;52912;48.564;9.302;2024-02-16T05:00:52;8.67;94.32
66119;DHT22;52912;48.564;9.302;2024-02-16T05:03:17;8.61;94.79
66119;DHT22;52912;48.564;9.302;2024-02-16T05:05:43;8.59;94.97
66119;DHT22;52912;48.564;9.302;2024-02-16T05:08:08;8.54;95.16
66119;DHT22;52912;48.564;9.302;2024-02-16T05:10:34;8.52;94.97
66119;DHT22;52912;48.564;9.302;2024-02-16T05:13:01;8.54;94.95
66119;DHT22;52912;48.564;9.302;2024-02-16T05:15:26;8.56;94.87
66119;DHT22;52912;48.564;9.302;2024-02-16T05:17:52;8.57;94.52
66119;DHT22;52912;48.564;9.302;2024-02-16T05:20:17;8.60;94.57
66119;DHT22;52912;48.564;9.302;2024-02-16T05:22:43;8.60;94.77
66119;DHT22;52912;48.564;9.302;2024-02-16T05:25:09;8.63;94.89
66119;DHT22;52912;48.564;9.302;2024-02-16T05:27:35;8.59;95.00
66119;DHT22;52912;48.564;9.302;2024-02-16T05:30:02;8.59;94.95
66119;DHT22;52912;48.564;9.302;2024-02-16T05:32:27;8.59;94.95
66119;DHT22;52912;48.564;9.302;2024-02-16T05:34:53;8.56;95.06
66119;DHT22;52912;48.564;9.302;2024-02-16T05:37:18;8.60;95.22
66119;DHT22;52912;48.564;9.302;2024-02-16T05:39:44;8.60;94.95
66119;DHT22;52912;48.564;9.302;2024-02-16T05:42:10;8.56;95.09
66119;DHT22;52912;48.564;9.302;2024-02-16T05:44:35;8.61;95.28
66119;DHT22;52912;48.564;9.302;2024-02-16T05:47:02;8.63;95.13
66119;DHT22;52912;48.564;9.302;2024-02-16T05:49:28;8.61;95.07
66119;DHT22;52912;48.564;9.302;2024-02-16T05:51:53;8.60;95.09
66119;DHT22;52912;48.564;9.302;2024-02-16T05:54:19;8.57;95.08
66119;DHT22;52912;48.564;9.302;2024-02-16T05:56:44;8.56;95.06
66119;DHT22;52912;48.564;9.302;2024-02-16T05:59:10;8.53;95.55
66119;DHT22;52912;48.564;9.302;2024-02-16T06:01:35;8.49;95.36
66119;DHT22;52912;48.564;9.302;2024-02-16T06:04:02;8.47;94.79
66119;DHT22;52912;48.564;9.302;2024-02-16T06:06:28;8.50;94.88
66119;DHT22;52912;48.564;9.302;2024-02-16T06:08:53;8.46;94.70
66119;DHT22;52912;48.564;9.302;2024-02-16T06:11:19;8.50;94.82
66119;DHT22;52912;48.564;9.302;2024-02-16T06:13:44;8.47;94.62
66119;DHT22;52912;48.564;9.302;2024-02-16T06:16:10;8.46;94.59
66119;DHT22;52912;48.564;9.302;2024-02-16T06:18:35;8.45;94.52
66119;DHT22;52912;48.564;9.302;2024-02-16T06:21:07;8.45;94.66
66119;DHT22;52912;48.564;9.302;2024-02-16T06:23:32;8.46;94.50
66119;DHT22;52912;48.564;9.302;2024-02-16T06:25:58;8.47;94.33
66119;DHT22;52912;48.564;9.302;2024-02-16T06:28:23;8.52;94.30
66119;DHT22;52912;48.564;9.302;2024-02-16T06:30:49;8.49;94.34
66119;DHT22;52912;48.564;9.302;2024-02-16T06:33:15;8.52;93.80
66119;DHT22;52912;48.564;9.302;2024-02-16T06:35:40;8.49;93.79
66119;DHT22;52912;48.564;9.302;2024-02-16T06:38:07;8.52;94.03
66119;DHT22;52912;48.564;9.302;2024-02-16T06:40:32;8.50;94.11
66119;DHT22;52912;48.564;9.302;2024-02-16T06:42:58;8.49;93.85
66119;DHT22;52912;48.564;9.302;2024-02-16T06:45:24;8.49;93.85
66119;DHT22;52912;48.564;9.302;2024-02-16T06:47:50;8.50;93.79
66119;DHT22;52912;48.564;9.302;2024-02-16T06:50:15;8.46;93.72
66119;DHT22;52912;48.564;9.302;2024-02-16T06:52:40;8.46;94.03
66119;DHT22;52912;48.564;9.302;2024-02-16T06:55:08;8.50;93.69
66119;DHT22;52912;48.564;9.302;2024-02-16T06:57:33;8.56;93.41
66119;DHT22;52912;48.564;9.302;2024-02-16T06:59:59;8.64;93.14
66119;DHT22;52912;48.564;9.302;2024-02-16T07:02:24;8.70;92.79
66119;DHT22;52912;48.564;9.302;2024-02-16T07:04:50;8.67;93.13
66119;DHT22;52912;48.564;9.302;2024-02-16T07:07:15;8.67;93.39
66119;DHT22;52912;48.564;9.302;2024-02-16T07:09:41;8.59;93.43
66119;DHT22;52912;48.564;9.302;2024-02-16T07:12:08;8.57;92.74
66119;DHT22;52912;48.564;9.302;2024-02-16T07:14:33;8.70;92.04
66119;DHT22;52912;48.564;9.302;2024-02-16T07:16:59;8.71;92.83
66119;DHT22;52912;48.564;9.302;2024-02-16T07:19:24;8.80;92.42
66119;DHT22;52912;48.564;9.302;2024-02-16T07:21:50;8.87;92.31
66119;DHT22;52912;48.564;9.302;2024-02-16T07:24:16;8.99;91.97
66119;DHT22;52912;48.564;9.302;2024-02-16T07:26:41;9.15;91.63
66119;DHT22;52912;48.564;9.302;2024-02-16T07:29:08;9.32;91.20
66119;DHT22;52912;48.564;9.302;2024-02-16T07:31:34;9.53;90.90
66119;DHT22;52912;48.564;9.302;2024-02-16T07:33:59;9.53;91.00
66119;DHT22;52912;48.564;9.302;2024-02-16T07:36:25;9.47;91.04
66119;DHT22;52912;48.564;9.302;2024-02-16T07:38:50;9.39;91.13
66119;DHT22;52912;48.564;9.302;2024-02-16T07:41:16;9.36;91.12
66119;DHT22;52912;48.564;9.302;2024-02-16T07:43:41;9.33;91.51
66119;DHT22;52912;48.564;9.302;2024-02-16T07:46:08;9.32;91.52
66119;DHT22;52912;48.564;9.302;2024-02-16T07:48:34;9.29;91.88
66119;DHT22;52912;48.564;9.302;2024-02-16T07:50:59;9.26;92.29
66119;DHT22;52912;48.564;9.302;2024-02-16T07:53:25;9.33;92.33
66119;DHT22;52912;48.564;9.302;2024-02-16T07:55:50;9.19;92.49
66119;DHT22;52912;48.564;9.302;2024-02-16T07:58:15;9.20;92.42
66119;DHT22;52912;48.564;9.302;2024-02-16T08:00:41;9.15;92.47
66119;DHT22;52912;48.564;9.302;2024-02-16T08:03:08;9.09;92.53
66119;DHT22;52912;48.564;9.302;2024-02-16T08:05:33;9.07;92.72
66119;DHT22;52912;48.564;9.302;2024-02-16T08:07:58;9.16;92.59
66119;DHT22;52912;48.564;9.302;2024-02-16T08:10:24;9.18;92.43
66119;DHT22;52912;48.564;9.302;2024-02-16T08:12:50;9.48;92.07
66119;DHT22;52912;48.564;9.302;2024-02-16T08:15:15;9.74;91.41
66119;DHT22;52912;48.564;9.302;2024-02-16T08:17:41;10.03;90.60
66119;DHT22;52912;48.564;9.302;2024-02-16T08:20:09;10.33;89.81
66119;DHT22;52912;48.564;9.302;2024-02-16T08:22:35;10.52;88.65
66119;DHT22;52912;48.564;9.302;2024-02-16T08:25:00;10.56;88.71
66119;DHT22;52912;48.564;9.302;2024-02-16T08:27:26;10.40;88.46
66119;DHT22;52912;48.564;9.302;2024-02-16T08:29:51;10.43;88.90
66119;DHT22;52912;48.564;9.302;2024-02-16T08:32:17;10.87;88.45
66119;DHT22;52912;48.564;9.302;2024-02-16T08:34:42;11.19;86.56
66119;DHT22;52912;48.564;9.302;2024-02-16T08:37:09;11.39;85.74
66119;DHT22;52912;48.564;9.302;2024-02-16T08:39:37;11.60;84.37
66119;DHT22;52912;48.564;9.302;2024-02-16T08:42:03;11.34;85.25
66119;DHT22;52912;48.564;9.302;2024-02-16T08:44:29;11.29;85.63
66119;DHT22;52912;48.564;9.302;2024-02-16T08:46:54;11.27;85.79
66119;DHT22;52912;48.564;9.302;2024-02-16T08:49:20;11.29;85.54
66119;DHT22;52912;48.564;9.302;2024-02-16T08:51:46;11.66;85.02
66119;DHT22;52912;48.564;9.302;2024-02-16T08:54:13;12.12;84.14
66119;DHT22;52912;48.564;9.302;2024-02-16T08:56:39;12.47;82.67
66119;DHT22;52912;48.564;9.302;2024-02-16T08:59:04;12.64;81.76
66119;DHT22;52912;48.564;9.302;2024-02-16T09:01:30;12.77;80.99
66119;DHT22;52912;48.564;9.302;2024-02-16T09:03:56;13.08;80.34
66119;DHT22;52912;48.564;9.302;2024-02-16T09:06:21;13.33;79.66
66119;DHT22;52912;48.564;9.302;2024-02-16T09:08:47;13.64;79.08
66119;DHT22;52912;48.564;9.302;2024-02-16T09:11:13;13.84;78.79
66119;DHT22;52912;48.564;9.302;2024-02-16T09:13:39;14.09;77.97
66119;DHT22;52912;48.564;9.302;2024-02-16T09:16:05;14.09;77.42
66119;DHT22;52912;48.564;9.302;2024-02-16T09:18:31;14.33;77.37
66119;DHT22;52912;48.564;9.302;2024-02-16T09:20:59;14.53;76.46
66119;DHT22;52912;48.564;9.302;2024-02-16T09:23:25;14.64;76.33
66119;DHT22;52912;48.564;9.302;2024-02-16T09:25:50;14.74;76.24
66119;DHT22;52912;48.564;9.302;2024-02-16T09:28:17;15.03;75.81
66119;DHT22;52912;48.564;9.302;2024-02-16T09:30:43;15.13;75.33
66119;DHT22;52912;48.564;9.302;2024-02-16T09:33:08;15.42;74.59
66119;DHT22;52912;48.564;9.302;2024-02-16T09:35:33;15.54;74.12
66119;DHT22;52912;48.564;9.302;2024-02-16T09:37:59;15.82;74.11
66119;DHT22;52912;48.564;9.302;2024-02-16T09:40:27;15.91;73.56
66119;DHT22;52912;48.564;9.302;2024-02-16T09:42:53;15.94;73.42
66119;DHT22;52912;48.564;9.302;2024-02-16T09:45:19;16.02;72.92
66119;DHT22;52912;48.564;9.302;2024-02-16T09:47:46;16.05;72.45
66119;DHT22;52912;48.564;9.302;2024-02-16T09:50:11;16.23;71.49
66119;DHT22;52912;48.564;9.302;2024-02-16T09:52:37;16.26;70.44
66119;DHT22;52912;48.564;9.302;2024-02-16T09:55:05;15.99;69.89
66119;DHT22;52912;48.564;9.302;2024-02-16T09:57:32;16.41;70.42
66119;DHT22;52912;48.564;9.302;2024-02-16T10:00:01;16.47;69.50
66119;DHT22;52912;48.564;9.302;2024-02-16T10:02:28;16.74;69.79
66119;DHT22;52912;48.564;9.302;2024-02-16T10:05:10;16.91;68.47
66119;DHT22;52912;48.564;9.302;2024-02-16T10:07:36;16.94;67.96
66119;DHT22;52912;48.564;9.302;2024-02-16T10:10:02;16.74;68.65
66119;DHT22;52912;48.564;9.302;2024-02-16T10:12:27;16.79;68.52
66119;DHT22;52912;48.564;9.302;2024-02-16T10:14:54;16.53;67.86
66119;DHT22;52912;48.564;9.302;2024-02-16T10:17:20;16.57;68.96
66119;DHT22;52912;48.564;9.302;2024-02-16T10:19:56;16.57;69.13
66119;DHT22;52912;48.564;9.302;2024-02-16T10:22:46;16.86;67.88
66119;DHT22;52912;48.564;9.302;2024-02-16T10:25:12;16.72;68.19
66119;DHT22;52912;48.564;9.302;2024-02-16T10:27:41;16.86;68.91
66119;DHT22;52912;48.564;9.302;2024-02-16T10:30:07;16.69;68.95
66119;DHT22;52912;48.564;9.302;2024-02-16T10:32:34;16.99;68.45
66119;DHT22;52912;48.564;9.302;2024-02-16T10:35:02;17.60;68.13
66119;DHT22;52912;48.564;9.302;2024-02-16T10:37:29;17.64;67.88
66119;DHT22;52912;48.564;9.302;2024-02-16T10:40:24;17.48;67.31
66119;DHT22;52912;48.564;9.302;2024-02-16T10:43:26;17.23;67.84
66119;DHT22;52912;48.564;9.302;2024-02-16T10:46:06;17.23;67.86
66119;DHT22;52912;48.564;9.302;2024-02-16T10:55:22;18.29;67.04
66119;DHT22;52912;48.564;9.302;2024-02-16T10:57:49;18.84;65.39
66119;DHT22;52912;48.564;9.302;2024-02-16T11:00:16;18.44;65.77
66119;DHT22;52912;48.564;9.302;2024-02-16T11:02:52;18.56;65.89
66119;DHT22;52912;48.564;9.302;2024-02-16T11:05:19;18.91;65.73
66119;DHT22;52912;48.564;9.302;2024-02-16T11:07:45;19.12;65.50
66119;DHT22;52912;48.564;9.302;2024-02-16T11:10:14;19.36;64.92
66119;DHT22;52912;48.564;9.302;2024-02-16T11:12:44;19.40;65.10
66119;DHT22;52912;48.564;9.302;2024-02-16T11:15:10;19.36;65.03
66119;DHT22;52912;48.564;9.302;2024-02-16T11:17:37;19.60;64.77
66119;DHT22;52912;48.564;9.302;2024-02-16T11:20:07;19.53;65.32
66119;DHT22;52912;48.564;9.302;2024-02-16T11:22:39;19.18;65.33
66119;DHT22;52912;48.564;9.302;2024-02-16T11:25:05;18.96;66.36
66119;DHT22;52912;48.564;9.302;2024-02-16T11:27:34;18.96;66.73
66119;DHT22;52912;48.564;9.302;2024-02-16T11:30:04;19.51;65.95
66119;DHT22;52912;48.564;9.302;2024-02-16T11:32:32;19.72;65.50
66119;DHT22;52912;48.564;9.302;2024-02-16T11:38:17;19.92;64.60
66119;DHT22;52912;48.564;9.302;2024-02-16T11:41:12;19.75;65.17
66119;DHT22;52912;48.564;9.302;2024-02-16T11:43:51;19.61;65.49
66119;DHT22;52912;48.564;9.302;2024-02-16T11:46:24;19.46;65.58
66119;DHT22;52912;48.564;9.302;2024-02-16T11:48:52;19.70;64.88
66119;DHT22;52912;48.564;9.302;2024-02-16T11:51:19;19.51;65.26
66119;DHT22;52912;48.564;9.302;2024-02-16T11:53:46;19.81;65.87
66119;DHT22;52912;48.564;9.302;2024-02-16T11:56:25;19.77;65.62
66119;DHT22;52912;48.564;9.302;2024-02-16T12:02:02;19.65;66.15
66119;DHT22;52912;48.564;9.302;2024-02-16T12:04:28;19.58;66.17
66119;DHT22;52912;48.564;9.302;2024-02-16T12:07:08;19.61;65.91
66119;DHT22;52912;48.564;9.302;2024-02-16T12:12:30;19.44;66.77
66119;DHT22;52912;48.564;9.302;2024-02-16T12:14:56;19.03;67.17
66119;DHT22;52912;48.564;9.302;2024-02-16T12:17:23;19.06;67.57
66119;DHT22;52912;48.564;9.302;2024-02-16T12:19:50;18.82;67.97
66119;DHT22;52912;48.564;9.302;2024-02-16T12:22:16;18.61;68.56
66119;DHT22;52912;48.564;9.302;2024-02-16T12:24:42;18.25;68.85
66119;DHT22;52912;48.564;9.302;2024-02-16T12:27:07;18.28;68.95
66119;DHT22;52912;48.564;9.302;2024-02-16T12:29:33;17.99;69.56
66119;DHT22;52912;48.564;9.302;2024-02-16T12:31:58;18.14;69.56
66119;DHT22;52912;48.564;9.302;2024-02-16T12:34:25;18.17;69.39
66119;DHT22;52912;48.564;9.302;2024-02-16T12:36:50;18.20;69.19
66119;DHT22;52912;48.564;9.302;2024-02-16T12:39:16;18.34;69.25
66119;DHT22;52912;48.564;9.302;2024-02-16T12:41:41;18.17;69.52
66119;DHT22;52912;48.564;9.302;2024-02-16T12:44:07;18.30;69.91
66119;DHT22;52912;48.564;9.302;2024-02-16T12:46:32;18.22;69.47
66119;DHT22;52912;48.564;9.302;2024-02-16T12:49:00;17.84;69.67
66119;DHT22;52912;48.564;9.302;2024-02-16T12:51:27;17.73;70.06
66119;DHT22;52912;48.564;9.302;2024-02-16T12:53:52;17.88;70.13
66119;DHT22;52912;48.564;9.302;2024-02-16T12:56:18;17.86;70.14
66119;DHT22;52912;48.564;9.302;2024-02-16T12:58:45;17.88;70.11
66119;DHT22;52912;48.564;9.302;2024-02-16T13:01:11;17.75;70.42
66119;DHT22;52912;48.564;9.302;2024-02-16T13:03:37;17.68;70.66
66119;DHT22;52912;48.564;9.302;2024-02-16T13:06:03;17.37;70.91
66119;DHT22;52912;48.564;9.302;2024-02-16T13:08:31;17.61;70.94
66119;DHT22;52912;48.564;9.302;2024-02-16T13:10:57;17.54;71.10
66119;DHT22;52912;48.564;9.302;2024-02-16T13:13:22;17.60;71.10
66119;DHT22;52912;48.564;9.302;2024-02-16T13:15:48;17.53;71.51
66119;DHT22;52912;48.564;9.302;2024-02-16T13:18:13;17.63;72.02
66119;DHT22;52912;48.564;9.302;2024-02-16T13:20:40;17.70;71.51
66119;DHT22;52912;48.564;9.302;2024-02-16T13:23:05;17.50;71.18
66119;DHT22;52912;48.564;9.302;2024-02-16T13:25:32;17.44;71.69
66119;DHT22;52912;48.564;9.302;2024-02-16T13:27:59;17.53;72.12
66119;DHT22;52912;48.564;9.302;2024-02-16T13:30:24;17.44;71.97
66119;DHT22;52912;48.564;9.302;2024-02-16T13:32:50;17.46;72.51
66119;DHT22;52912;48.564;9.302;2024-02-16T13:35:15;17.36;72.22
66119;DHT22;52912;48.564;9.302;2024-02-16T13:37:41;17.20;72.32
66119;DHT22;52912;48.564;9.302;2024-02-16T13:40:07;17.34;72.41
66119;DHT22;52912;48.564;9.302;2024-02-16T13:42:36;17.20;72.69
66119;DHT22;52912;48.564;9.302;2024-02-16T13:45:01;17.37;72.65
66119;DHT22;52912;48.564;9.302;2024-02-16T13:47:27;17.34;72.74
66119;DHT22;52912;48.564;9.302;2024-02-16T13:49:53;17.27;72.96
66119;DHT22;52912;48.564;9.302;2024-02-16T13:52:18;17.31;73.03
66119;DHT22;52912;48.564;9.302;2024-02-16T13:54:44;17.34;73.10
66119;DHT22;52912;48.564;9.302;2024-02-16T13:57:09;17.46;72.89
66119;DHT22;52912;48.564;9.302;2024-02-16T13:59:36;17.46;73.00
66119;DHT22;52912;48.564;9.302;2024-02-16T14:02:01;17.33;72.82
66119;DHT22;52912;48.564;9.302;2024-02-16T14:04:27;17.33;73.04
66119;DHT22;52912;48.564;9.302;2024-02-16T14:06:53;17.33;73.09
66119;DHT22;52912;48.564;9.302;2024-02-16T14:09:18;17.24;73.28
66119;DHT22;52912;48.564;9.302;2024-02-16T14:11:45;17.26;73.17
66119;DHT22;52912;48.564;9.302;2024-02-16T14:14:10;17.34;73.23
66119;DHT22;52912;48.564;9.302;2024-02-16T14:16:37;17.36;73.42
66119;DHT22;52912;48.564;9.302;2024-02-16T14:19:03;17.29;73.85
66119;DHT22;52912;48.564;9.302;2024-02-16T14:21:28;17.18;74.12
66119;DHT22;52912;48.564;9.302;2024-02-16T14:23:53;17.18;74.28
66119;DHT22;52912;48.564;9.302;2024-02-16T14:26:19;17.18;74.54
66119;DHT22;52912;48.564;9.302;2024-02-16T14:28:44;17.23;74.69
66119;DHT22;52912;48.564;9.302;2024-02-16T14:31:10;17.22;75.22
66119;DHT22;52912;48.564;9.302;2024-02-16T14:33:37;17.22;75.21
66119;DHT22;52912;48.564;9.302;2024-02-16T14:36:03;17.13;75.77
66119;DHT22;52912;48.564;9.302;2024-02-16T14:38:28;17.19;75.77
66119;DHT22;52912;48.564;9.302;2024-02-16T14:40:54;17.12;75.94
66119;DHT22;52912;48.564;9.302;2024-02-16T14:43:19;17.11;76.36
66119;DHT22;52912;48.564;9.302;2024-02-16T14:45:44;17.12;76.44
66119;DHT22;52912;48.564;9.302;2024-02-16T14:48:10;17.13;76.53
66119;DHT22;52912;48.564;9.302;2024-02-16T14:50:37;17.03;77.23
66119;DHT22;52912;48.564;9.302;2024-02-16T14:53:02;17.06;76.99
66119;DHT22;52912;48.564;9.302;2024-02-16T14:55:28;17.06;77.39
66119;DHT22;52912;48.564;9.302;2024-02-16T14:57:53;17.08;77.54
66119;DHT22;52912;48.564;9.302;2024-02-16T15:00:19;17.06;77.29
66119;DHT22;52912;48.564;9.302;2024-02-16T15:02:44;16.95;77.45
66119;DHT22;52912;48.564;9.302;2024-02-16T15:05:10;16.95;77.43
66119;DHT22;52912;48.564;9.302;2024-02-16T15:07:37;16.86;77.76
66119;DHT22;52912;48.564;9.302;2024-02-16T15:10:02;16.75;77.85
66119;DHT22;52912;48.564;9.302;2024-02-16T15:12:28;16.78;78.02
66119;DHT22;52912;48.564;9.302;2024-02-16T15:14:53;16.72;78.04
66119;DHT22;52912;48.564;9.302;2024-02-16T15:17:19;16.64;78.22
66119;DHT22;52912;48.564;9.302;2024-02-16T15:19:44;16.61;78.52
66119;DHT22;52912;48.564;9.302;2024-02-16T15:22:10;16.47;78.47
66119;DHT22;52912;48.564;9.302;2024-02-16T15:24:37;16.43;78.80
66119;DHT22;52912;48.564;9.302;2024-02-16T15:27:03;16.43;78.81
66119;DHT22;52912;48.564;9.302;2024-02-16T15:29:29;16.41;79.21
66119;DHT22;52912;48.564;9.302;2024-02-16T15:31:54;16.34;79.20
66119;DHT22;52912;48.564;9.302;2024-02-16T15:34:20;16.24;79.42
66119;DHT22;52912;48.564;9.302;2024-02-16T15:36:45;16.29;79.48
66119;DHT22;52912;48.564;9.302;2024-02-16T15:39:11;16.20;79.60
66119;DHT22;52912;48.564;9.302;2024-02-16T15:41:37;16.24;79.76
66119;DHT22;52912;48.564;9.302;2024-02-16T15:44:03;16.19;79.58
66119;DHT22;52912;48.564;9.302;2024-02-16T15:46:30;16.19;79.55
66119;DHT22;52912;48.564;9.302;2024-02-16T15:48:56;16.16;79.44
66119;DHT22;52912;48.564;9.302;2024-02-16T15:51:21;16.09;79.74